Bisbee Douglas International Airport
KDUG : now visible

Airfield :











YOU CAN JOIN US ON...

 
LOGIN :

Register | Disclaimer

   EN    FR    IT 

 









Legend :    VFR   Marginal VFR   IFR   Intensive IFR   Very Intensive IFR
Visi :
Ceiling :
>= 8 km
>= 3000ft
5 to 8 km
1000 to 3000 ft
1500m to 5 km
500 to 1000 ft
800 to 1500m
200 to 500 ft
< 800m
< 200 ft
Symbols :   Thunderstorms  Fog  Heavy snow  Heavy precipitations  Wind > 20 kt






- Airport Elevation : 4154 ft


KDUG - Bisbee Douglas International

CURRENT METAR :
  • 282156Z AUTO 14018G29KT 10SM FEW055 BKN090 18/04 A2994 RMK AO2 PK WND 13034/2059 SLP099 T01830039

EXPIRED METARs :
  • 282056Z AUTO 14020G33KT 10SM FEW055 19/03 A2997 RMK AO2 PK WND 13041/2046 SLP106 T01890033 58032
  • 281956Z AUTO 12023G30KT 10SM SCT055 18/04 A3001 RMK AO2 PK WND 12030/1951 SLP121 T01830039
  • 281856Z AUTO 15019G24KT 10SM BKN060 OVC080 17/03 A3006 RMK AO2 PK WND 17026/1842 SLP139 T01720033

TAF KDUG
Valid from the 28 at 18:00 until the 29 at 18:00 UTC


281726Z 2818/2918 14010KT P6SM SCT040 BKN100
FM282200 17015G25KT P6SM VCTS SCT040CB BKN070CB
TEMPO 2822/2902 VRB15G30KT 3SM TSRA BKN050CB
FM290200 32010KT P6SM VCSH SCT040 BKN060
FM290700 34005KT P6SM BKN060
FM291200 VRB03KT P6SM SCT100
KZAB FIR / North America



MET'MAP, your aeronautical weather chart ! - Copyright ORBIFLY December 2007 - Disclaimer

ORBIFLY MET'MAP TEAM :

Programming & Development : Alexandra Zaïnal
Original concept : Baudouin d'Aumeries
Technical & hardware support : Manuel Goepfert
Assistance : Marc-Olivier Méhu




SOURCES & CREDITS :

   NOAA       Earth
Advisory